aviador You're here:

KLAF Decoded Metar

LAFAYETTE in IN, USA
Report Time2017-07-22 17:54:00
UTC Time2017-07-22 18:51:16
Flight Rules vfr VFR
Wind320° at 06 kt
W.Decomp.*RWY 28: 4.5 kt HW 3.9 kt RCW
RWY 05: 0.1 kt HW 6 kt LCW
W.Rank320° ranks 26
Current wind is below 320° avg. (8.2)
Visibility9999 m
Phenomena:N/A
Clouds:N/A
Expected CloudBase > 2,000 ft AGL from Temp-Dew spread
CeilingNone
Temp28°C (ISA +14)
Dew Point23°C (74% RH)
Heat Index31.2°C
QNH1010 hPa
Density Alt2,700 ft
Elevation597 ft
Report Wrong Elevation
Raw Report
KLAF 221754Z 32006KT 10SM CLR 28/23 A2982 RMK AO2 SLP091 60004
T02780228 10278 20222 51009=

Extra information for KLAF:More info

Metar Taf Metar & Taf Last 4 Metars F.Rules Stats Wind Profile Meteogram Temp Stats Airport Information Weather charts Add Link Nearby VenuesMetar ALERT Operation Metar Decoded Social comments

AIRNAV info for KLAF